Ana Sayfa
METAR-TAF:

METAR-TAF

Havaalanları :

Bahreyn, Bahreyn

Enlem: 26-16N, Boylam: 050-39E, yükseklik: 2 m

Güncel hava durumu gözlemi

Rapor saat 20:30 UTC de 34 dakika önce yapıldı.
Rüzgar batı/kuzeybatıdan 11 kt
Sıcaklık 23°C
Nem 78%
Basınç 1019 hPa
Görüş mesafesi 10 km veya daha fazla
2000 ft yükseklikte az bulutlu

METAR: OBBI 172030Z 29011KT 9999 FEW020 23/19 Q1019 NOSIG

Saat: 00:04 (21:04 UTC)

Tahmin

Rapor saat 17:00 UTC de 4 saat ve 4 dakika önce yapıldı.
Ayın 17'si saat 18 UTC'den ayın 19'si saat 00 UTC'ye kadar geçerli Tahmin
Rüzgar kuzeybatıdan 15 kt ve 25 kt'a kadar ani rüzgarlar
Görüş mesafesi 10 km veya daha fazla
1500 ft yükseklikte parçalı bulutlu

TAF: OBBI 171700Z 1718/1900 32015G25KT 9999 SCT015

4.000'den fazla havaalanı için hava durumu gözlemleri ve tahminleri (METAR ve TAF raporları).

Kullanılabilir istasyonlar harita üzerinde sarı ve kırmızı noktalarla gösterilir.

İstasyonun adını görmek için fareyi noktanın üzerinde gezdirin.

Sonrasında hava gözlem ve tahminlerini görmek için tıklayın.

Haritayı değiştirmek için: yaklaştırmak için siyah artı işaretli yeşil düğmeye ve uzaklaştırmak için de eksi işaretli düğmeye hızla tıklayın; bitişik haritalar için yeşil okları kullanın.


METAR-TAF: